Acailandia, Brazil
Current Conditions -  °F | °C
As of 12:00 PM on Saturday 25 Oct 2014 (Local Time) from SBIZ Reporting Station
Broken Clouds Broken Clouds  
Wind Chill: 88°   Ceiling: 2000
Heat Index: 96°   Visibility: 6mi
Dew Point: 73°   Wind: 3mph
Humidity: 62%   Direction: 50°NE
Pressure: 29.85"   Gusts: NA
Location:  4.95°S, 47.5°W
Report Text: SBIZ 251500Z 05003KT 9999 BKN020 31/23 Q1011
Loading
Personal Weather Stations






























Interactive Weather Map
Tropical Storm Tracking
New forecast layout! Learn more

10-Day Weather Forecast

Advertisements
Track Severe Weather on mobile